Etusivu
METAR-TAF:

METAR-TAF

Lentoasemat :

Charleroi, Belgia

Leveyspiiri: 50-28N, Pituuspiiri: 004-27E, korkeus merenpinnasta: 187 m

Tämänhetkinen sää

Tämä raportti tehtiin 39 minuuttia sitten, kello 09.50 UTC
Tuuli 8 kn lännestä
Lämpötila 5°C
Kosteus 93%
Ilmanpaine 1024 hPa
Näkyvyys: 7000 m
Hajanaisia pilviä 600 ft:n korkeudessa

METAR: EBCI 100950Z 26008KT 7000 SCT006 05/04 Q1024 TEMPO BKN006

Aika: 11:29 (10:29 UTC)

Sääennuste

Tämä raportti tehtiin 5 tuntia ja 19 minuuttia sitten, kello 05.10 UTC
Ennuste voimassa 10. päivästä klo 06 UTC - 11. päivään klo 12 UTC
Tuuli 8 kn lännestä
Näkyvyys 10 km tai enemmän
Muutamia pilviä 2000 ft:n korkeudessa
Hajanaisia pilviä 4000 ft:n korkeudessa
Todennäköisyys 30% :
Ajoittain
10. päivästä klo 07 UTC - 10. päivään klo 09 UTC
Näkyvyys: 3500 m
Hajonneita pilviä 1400 ft:n korkeudessa
heikkoa sadetta, tihkusadetta

TAF: EBCI 100510Z 1006/1112 28008KT 9999 FEW020 SCT040 PROB30 TEMPO 1007/1009 3500 -RADZ BKN014

Säähavainnot ja -ennusteet yli 4000 lentoasemalta (METAR- ja TAF-raportit).

Käytössä olevat sääasemat on merkitty karttaan keltaisilla ja punaisilla pisteillä.

Aseta hiiri pisteen päälle nähdäksesi sääaseman nimen.

Klikkaa sitten nähdäksesi säähavainnot ja -ennusteet.

Kartan vaihtaminen: klikkaa mustalla rastilla varustettuja vihreitä pisteitä, niin voit zoomata sisään; viivalla varustettua vihreää pistettä, niin voit zoomata ulos tai vihreitä nuolia, niin pääset viereisille kartoille.


METAR-TAF: